createdAt,value
2022-08-12T00:00:36.553Z,97836.25
2022-08-12T00:03:22.509Z,97836.88
2022-08-12T00:06:08.810Z,97842.25
2022-08-12T00:08:57.496Z,97845.34
2022-08-12T00:11:46.062Z,97837.03
2022-08-12T00:14:32.917Z,97828.53
2022-08-12T00:17:19.038Z,97826.47
2022-08-12T00:20:05.589Z,97834.97
2022-08-12T00:22:58.738Z,97842.59
2022-08-12T00:26:21.758Z,97842.16
2022-08-12T00:29:04.402Z,97833.88
2022-08-12T00:31:50.200Z,97836.31
2022-08-12T00:34:36.535Z,97834.03
2022-08-12T00:37:22.974Z,97830.91
2022-08-12T00:40:11.668Z,97828.81
2022-08-12T00:42:41.681Z,97823.19
2022-08-12T00:45:13.568Z,97820.06
2022-08-12T00:47:42.374Z,97815.28
2022-08-12T00:50:18.246Z,97815.69
2022-08-12T00:52:47.946Z,97821.25
2022-08-12T00:55:17.274Z,97824.34
2022-08-12T00:57:48.849Z,97816.69
2022-08-12T01:00:22.417Z,97819.16
2022-08-12T01:02:53.200Z,97815.19
2022-08-12T01:05:42.037Z,97820.16
2022-08-12T01:08:28.838Z,97811.63
2022-08-12T01:11:15.811Z,97813.06
2022-08-12T01:13:49.406Z,97812.81
2022-08-12T01:16:22.851Z,97815.91
2022-08-12T01:18:54.697Z,97815.25
2022-08-12T01:21:52.497Z,97810.28
2022-08-12T01:24:50.642Z,97805.53
2022-08-12T01:27:22.869Z,97806.72
2022-08-12T01:29:54.781Z,97813.34
2022-08-12T01:32:24.941Z,97811.88
2022-08-12T01:35:05.730Z,97811.44
2022-08-12T01:37:37.797Z,97809.13
2022-08-12T01:40:34.488Z,97804.16
2022-08-12T01:43:08.466Z,97801.81
2022-08-12T01:45:43.783Z,97800.38
2022-08-12T01:48:24.072Z,97803.84
2022-08-12T01:51:04.583Z,97798.84
2022-08-12T01:53:59.479Z,97803.78
2022-08-12T01:56:43.693Z,97797.13
2022-08-12T01:59:31.316Z,97793.81
2022-08-12T02:02:01.347Z,97786.97
2022-08-12T02:05:19.534Z,97790.06
2022-08-12T02:08:20.594Z,97782.56
2022-08-12T02:11:18.682Z,97769.28
2022-08-12T02:14:03.927Z,97784.19
2022-08-12T02:16:51.766Z,97783.75
2022-08-12T02:19:40.594Z,97788.47
2022-08-12T02:22:27.714Z,97776.47
2022-08-12T02:25:09.324Z,97779.53
2022-08-12T02:27:41.087Z,97779.72
2022-08-12T02:30:14.459Z,97772.06
2022-08-12T02:32:46.195Z,97772.91
2022-08-12T02:35:19.754Z,97770.41
2022-08-12T02:37:51.580Z,97771.41
2022-08-12T02:40:22.595Z,97763.75
2022-08-12T02:42:59.246Z,97764.13
2022-08-12T02:45:38.136Z,97762.66
2022-08-12T02:48:10.644Z,97756.66
2022-08-12T02:50:48.482Z,97756.66
2022-08-12T02:53:18.601Z,97753.34
2022-08-12T02:55:47.338Z,97756.41
2022-08-12T02:58:16.040Z,97752.28
2022-08-12T03:00:49.986Z,97744.41
2022-08-12T03:03:20.617Z,97746.63
2022-08-12T03:05:58.349Z,97750.72
2022-08-12T03:08:33.229Z,97748.22
2022-08-12T03:11:14.665Z,97750.63
2022-08-12T03:13:48.034Z,97751.22
2022-08-12T03:16:18.345Z,97746.41
2022-08-12T03:18:46.972Z,97750.94
2022-08-12T03:21:52.687Z,97745.94
2022-08-12T03:24:09.478Z,97749.19
2022-08-12T03:26:39.065Z,97753.28
2022-08-12T03:29:08.541Z,97744.59
2022-08-12T03:31:38.267Z,97753.88
2022-08-12T03:34:09.354Z,97747.66
2022-08-12T03:36:40.568Z,97748.69
2022-08-12T03:39:35.507Z,97749.06
2022-08-12T03:42:24.223Z,97741.59
2022-08-12T03:45:24.718Z,97741.16
2022-08-12T03:48:19.395Z,97757.63
2022-08-12T03:51:06.489Z,97749.31
2022-08-12T03:53:52.780Z,97761.44
2022-08-12T03:56:38.856Z,97769.84
2022-08-12T03:59:26.068Z,97773.91
2022-08-12T04:01:57.528Z,97761.91
2022-08-12T04:04:34.703Z,97758.94
2022-08-12T04:07:07.882Z,97761.63
2022-08-12T04:09:39.648Z,97757.66
2022-08-12T04:12:26.743Z,97765.00
2022-08-12T04:15:02.738Z,97756.72
2022-08-12T04:17:32.095Z,97760.63
2022-08-12T04:20:01.866Z,97751.06
2022-08-12T04:22:31.193Z,97758.31
2022-08-12T04:25:01.979Z,97752.47
2022-08-12T04:27:32.712Z,97750.16
2022-08-12T04:30:17.097Z,97751.63
2022-08-12T04:32:52.238Z,97752.84
2022-08-12T04:35:23.781Z,97755.72
2022-08-12T04:37:59.130Z,97740.19
2022-08-12T04:40:31.922Z,97757.53
2022-08-12T04:43:02.242Z,97751.19
2022-08-12T04:45:31.378Z,97761.91
2022-08-12T04:48:01.662Z,97760.88
2022-08-12T04:50:36.168Z,97762.53
2022-08-12T04:53:08.149Z,97769.56
2022-08-12T04:55:38.689Z,97774.75
2022-08-12T04:58:07.267Z,97778.88
2022-08-12T05:00:36.005Z,97782.22
2022-08-12T05:03:05.837Z,97773.16
2022-08-12T05:05:37.991Z,97775.00
2022-08-12T05:08:12.199Z,97778.53
2022-08-12T05:10:40.774Z,97773.81
2022-08-12T05:13:12.587Z,97763.09
2022-08-12T05:16:00.275Z,97770.75
2022-08-12T05:18:31.558Z,97770.56
2022-08-12T05:21:01.289Z,97769.41
2022-08-12T05:23:32.045Z,97774.19
2022-08-12T05:26:01.547Z,97774.00
2022-08-12T05:28:31.186Z,97780.66
2022-08-12T05:31:01.845Z,97778.25
2022-08-12T05:33:37.578Z,97772.34
2022-08-12T05:36:09.962Z,97789.31
2022-08-12T05:38:55.592Z,97774.13
2022-08-12T05:41:24.893Z,97781.44
2022-08-12T05:43:56.642Z,97789.19
2022-08-12T05:46:26.768Z,97781.66
2022-08-12T05:48:56.628Z,97772.47
2022-08-12T05:51:39.924Z,97777.34
2022-08-12T05:54:11.867Z,97775.81
2022-08-12T05:56:41.602Z,97775.31
2022-08-12T05:59:12.209Z,97776.25
2022-08-12T06:02:12.666Z,97779.06
2022-08-12T06:04:30.080Z,97782.69
2022-08-12T06:07:01.827Z,97781.94
2022-08-12T06:09:31.325Z,97787.63
2022-08-12T06:12:05.680Z,97795.59
2022-08-12T06:14:37.750Z,97799.19
2022-08-12T06:17:09.129Z,97785.81
2022-08-12T06:20:25.966Z,97788.38
2022-08-12T06:22:27.894Z,97794.44
2022-08-12T06:24:56.263Z,97793.28
2022-08-12T06:27:24.590Z,97790.44
2022-08-12T06:30:08.820Z,97794.81
2022-08-12T06:32:51.642Z,97800.66
2022-08-12T06:35:49.348Z,97801.34
2022-08-12T06:38:21.446Z,97794.69
2022-08-12T06:41:11.759Z,97788.91
2022-08-12T06:44:05.915Z,97796.56
2022-08-12T06:46:31.244Z,97793.03
2022-08-12T06:49:00.600Z,97788.66
2022-08-12T06:51:32.794Z,97791.31
2022-08-12T06:54:03.205Z,97784.63
2022-08-12T06:57:03.604Z,97801.38
2022-08-12T06:59:21.477Z,97801.13
2022-08-12T07:01:51.693Z,97804.38
2022-08-12T07:04:38.287Z,97797.25
2022-08-12T07:07:08.965Z,97799.22
2022-08-12T07:10:01.613Z,97799.97
2022-08-12T07:12:28.721Z,97786.16
2022-08-12T07:14:58.218Z,97782.31
2022-08-12T07:17:27.974Z,97785.13
2022-08-12T07:20:00.597Z,97788.75
2022-08-12T07:22:33.160Z,97785.13
2022-08-12T07:25:40.865Z,97785.00
2022-08-12T07:28:16.400Z,97783.81
2022-08-12T07:30:48.474Z,97784.13
2022-08-12T07:33:17.965Z,97782.69
2022-08-12T07:35:48.257Z,97782.06
2022-08-12T07:38:29.576Z,97780.94
2022-08-12T07:41:06.136Z,97783.06
2022-08-12T07:43:39.400Z,97783.09
2022-08-12T07:46:11.330Z,97777.38
2022-08-12T07:48:43.755Z,97776.56
2022-08-12T07:51:12.944Z,97774.75
2022-08-12T07:54:00.710Z,97779.38
2022-08-12T07:56:32.963Z,97786.69
2022-08-12T07:59:03.027Z,97776.91
2022-08-12T08:01:32.989Z,97773.97
2022-08-12T08:04:19.576Z,97782.38
2022-08-12T08:06:49.326Z,97784.53
2022-08-12T08:09:22.756Z,97783.34
2022-08-12T08:12:19.255Z,97785.25
2022-08-12T08:14:50.152Z,97785.09
2022-08-12T08:17:18.979Z,97785.56
2022-08-12T08:20:03.508Z,97779.44
2022-08-12T08:22:41.709Z,97785.56
2022-08-12T08:25:35.829Z,97784.59
2022-08-12T08:28:03.380Z,97784.00
2022-08-12T08:30:33.195Z,97781.53
2022-08-12T08:33:01.599Z,97784.78
2022-08-12T08:35:46.307Z,97786.31
2022-08-12T08:38:30.739Z,97773.47
2022-08-12T08:42:15.752Z,97774.28
2022-08-12T08:44:10.899Z,97777.75
2022-08-12T08:46:39.981Z,97783.16
2022-08-12T08:49:08.950Z,97781.66
2022-08-12T08:51:38.558Z,97780.53
2022-08-12T08:54:08.642Z,97771.50
2022-08-12T08:56:44.544Z,97765.38
2022-08-12T08:59:15.369Z,97761.81
2022-08-12T09:01:44.783Z,97769.66
2022-08-12T09:05:09.528Z,97763.84
2022-08-12T09:07:17.082Z,97758.66
2022-08-12T09:10:02.286Z,97763.72
2022-08-12T09:12:54.901Z,97763.91
2022-08-12T09:15:35.544Z,97760.41
2022-08-12T09:18:08.736Z,97761.59
2022-08-12T09:20:40.002Z,97752.16
2022-08-12T09:23:59.615Z,97756.41
2022-08-12T09:26:04.559Z,97757.63
2022-08-12T09:28:34.430Z,97759.41
2022-08-12T09:32:02.834Z,97746.94
2022-08-12T09:34:25.426Z,97740.22
2022-08-12T09:37:00.216Z,97752.59
2022-08-12T09:40:07.988Z,97751.91
2022-08-12T09:42:54.270Z,97747.38
2022-08-12T09:46:06.694Z,97747.75
2022-08-12T09:48:20.148Z,97744.84
2022-08-12T09:50:55.276Z,97743.03
2022-08-12T09:53:36.540Z,97748.00
2022-08-12T09:56:59.369Z,97755.16
2022-08-12T09:59:01.791Z,97755.72
2022-08-12T10:01:34.920Z,97747.31
2022-08-12T10:04:20.739Z,97750.03
2022-08-12T10:06:55.475Z,97735.53
2022-08-12T10:09:28.606Z,97733.06
2022-08-12T10:12:33.551Z,97743.44
2022-08-12T10:15:02.554Z,97739.63
2022-08-12T10:17:31.100Z,97735.28
2022-08-12T10:20:01.429Z,97729.28
2022-08-12T10:22:49.098Z,97721.09
2022-08-12T10:26:36.558Z,97724.94
2022-08-12T10:28:41.143Z,97715.13
2022-08-12T10:31:29.468Z,97716.50
2022-08-12T10:34:26.230Z,97711.28
2022-08-12T10:37:10.465Z,97710.47
2022-08-12T10:40:01.311Z,97706.91
2022-08-12T10:43:00.559Z,97707.16
2022-08-12T10:45:31.230Z,97711.00
2022-08-12T10:48:07.180Z,97706.06
2022-08-12T10:51:01.044Z,97709.94
2022-08-12T10:53:45.458Z,97710.19
2022-08-12T10:56:15.648Z,97699.25
2022-08-12T10:58:46.218Z,97697.34
2022-08-12T11:03:01.551Z,97693.75
2022-08-12T11:04:27.159Z,97698.13
2022-08-12T11:07:09.475Z,97695.13
2022-08-12T11:10:00.965Z,97695.09
2022-08-12T11:12:54.933Z,97689.63
2022-08-12T11:15:24.213Z,97689.09
2022-08-12T11:18:03.217Z,97679.50
2022-08-12T11:20:31.831Z,97680.06
2022-08-12T11:23:04.051Z,97676.78
2022-08-12T11:25:57.344Z,97675.09
2022-08-12T11:28:33.957Z,97676.22
2022-08-12T11:31:04.873Z,97661.44
2022-08-12T11:34:04.286Z,97668.00
2022-08-12T11:36:22.476Z,97669.09
2022-08-12T11:38:51.437Z,97671.81
2022-08-12T11:41:31.150Z,97665.53
2022-08-12T11:44:34.908Z,97656.53
2022-08-12T11:46:51.430Z,97659.81
2022-08-12T11:49:32.349Z,97660.13
2022-08-12T11:52:02.801Z,97662.59
2022-08-12T11:54:31.924Z,97662.81
2022-08-12T11:58:07.355Z,97657.63
2022-08-12T12:02:40.831Z,97658.72
2022-08-12T12:05:09.997Z,97653.50
2022-08-12T12:08:37.727Z,97666.09
2022-08-12T12:10:29.198Z,97667.41
2022-08-12T12:12:58.926Z,97654.00
2022-08-12T12:15:40.747Z,97650.16
2022-08-12T12:18:22.516Z,97651.25
2022-08-12T12:21:01.216Z,97642.78
2022-08-12T12:23:30.893Z,97640.59
2022-08-12T12:26:08.290Z,97638.94
2022-08-12T12:28:41.515Z,97636.78
2022-08-12T12:32:09.258Z,97633.75
2022-08-12T12:34:12.682Z,97625.88
2022-08-12T12:37:00.889Z,97624.78
2022-08-12T12:39:54.580Z,97622.09
2022-08-12T12:42:43.185Z,97620.72
2022-08-12T12:45:19.768Z,97624.53
2022-08-12T12:48:00.190Z,97618.78
2022-08-12T12:52:17.169Z,97621.00
2022-08-12T12:54:12.973Z,97608.66
2022-08-12T12:56:49.999Z,97620.97
2022-08-12T12:59:35.011Z,97630.56
2022-08-12T13:02:08.819Z,97632.19
2022-08-12T13:04:38.246Z,97632.13
2022-08-12T13:07:07.929Z,97622.28
2022-08-12T13:09:36.934Z,97630.75
2022-08-12T13:12:10.787Z,97632.34
2022-08-12T13:14:39.997Z,97633.47
2022-08-12T13:17:11.367Z,97631.53
2022-08-12T13:19:45.427Z,97636.72
2022-08-12T13:22:20.794Z,97634.84
2022-08-12T13:24:55.904Z,97638.91
2022-08-12T13:27:34.669Z,97640.03
2022-08-12T13:30:13.793Z,97634.81
2022-08-12T13:32:57.129Z,97631.00
2022-08-12T13:35:33.702Z,97634.28
2022-08-12T13:38:15.773Z,97632.69
2022-08-12T13:40:55.966Z,97632.41
2022-08-12T13:43:40.541Z,97628.00
2022-08-12T13:46:12.395Z,97631.28
2022-08-12T13:48:45.161Z,97637.28
2022-08-12T13:51:14.413Z,97638.69
2022-08-12T13:53:55.340Z,97632.41
2022-08-12T13:56:34.779Z,97634.03
2022-08-12T13:59:08.575Z,97641.97
2022-08-12T14:01:40.557Z,97637.31
2022-08-12T14:04:11.619Z,97641.41
2022-08-12T14:06:40.901Z,97641.66
2022-08-12T14:09:17.391Z,97628.53
2022-08-12T14:11:58.773Z,97635.09
2022-08-12T14:14:31.284Z,97623.59
2022-08-12T14:17:05.641Z,97633.44
2022-08-12T14:19:48.701Z,97625.22
2022-08-12T14:22:26.044Z,97626.28
2022-08-12T14:24:55.454Z,97636.09
2022-08-12T14:28:03.943Z,97644.25
2022-08-12T14:30:28.840Z,97632.47
2022-08-12T14:32:58.060Z,97633.25
2022-08-12T14:35:28.102Z,97626.41
2022-08-12T14:38:25.895Z,97628.78
2022-08-12T14:40:57.655Z,97622.16
2022-08-12T14:43:31.524Z,97612.25
2022-08-12T14:46:01.825Z,97613.31
2022-08-12T14:48:30.654Z,97622.81
2022-08-12T14:52:10.624Z,97618.66
2022-08-12T14:55:24.741Z,97627.09
2022-08-12T14:59:58.162Z,97619.13
2022-08-12T15:02:28.537Z,97628.41
2022-08-12T15:04:59.301Z,97633.84
2022-08-12T15:07:33.524Z,97634.66
2022-08-12T15:10:13.426Z,97647.78
2022-08-12T15:12:42.170Z,97645.88
2022-08-12T15:15:11.684Z,97655.69
2022-08-12T15:17:40.306Z,97658.41
2022-08-12T15:20:31.762Z,97663.34
2022-08-12T15:23:00.511Z,97657.34
2022-08-12T15:25:29.647Z,97649.69
2022-08-12T15:28:10.834Z,97652.69
2022-08-12T15:30:49.670Z,97655.06
2022-08-12T15:33:21.120Z,97662.72
2022-08-12T15:35:53.853Z,97672.72
2022-08-12T15:38:28.090Z,97683.88
2022-08-12T15:41:00.092Z,97677.28
2022-08-12T15:44:15.878Z,97671.22
2022-08-12T15:46:21.279Z,97683.16
2022-08-12T15:48:54.831Z,97686.66
2022-08-12T15:51:57.304Z,97687.69
2022-08-12T15:54:30.807Z,97689.69
2022-08-12T15:57:05.698Z,97683.97
2022-08-12T16:00:03.911Z,97686.88
2022-08-12T16:02:29.919Z,97681.88
2022-08-12T16:04:58.841Z,97676.13
2022-08-12T16:07:40.827Z,97679.88
2022-08-12T16:10:11.769Z,97672.72
2022-08-12T16:12:54.963Z,97666.38
2022-08-12T16:15:26.698Z,97659.25
2022-08-12T16:18:18.477Z,97665.19
2022-08-12T16:20:47.343Z,97660.75
2022-08-12T16:23:26.672Z,97660.41
2022-08-12T16:26:15.151Z,97662.25
2022-08-12T16:28:47.425Z,97658.38
2022-08-12T16:31:23.231Z,97651.53
2022-08-12T16:33:59.697Z,97655.59
2022-08-12T16:36:30.363Z,97649.25
2022-08-12T16:39:01.603Z,97649.75
2022-08-12T16:41:38.039Z,97648.38
2022-08-12T16:44:09.422Z,97653.22
2022-08-12T16:46:39.253Z,97650.78
2022-08-12T16:49:09.135Z,97652.66
2022-08-12T16:51:46.850Z,97640.41
2022-08-12T16:54:18.473Z,97637.94
2022-08-12T16:56:55.191Z,97646.34
2022-08-12T16:59:53.495Z,97641.16
2022-08-12T17:02:31.963Z,97646.25
2022-08-12T17:05:05.155Z,97648.91
2022-08-12T17:07:36.811Z,97647.78
2022-08-12T17:10:08.665Z,97652.28
2022-08-12T17:12:39.001Z,97646.50
2022-08-12T17:15:51.121Z,97658.97
2022-08-12T17:18:42.285Z,97664.56
2022-08-12T17:20:48.987Z,97657.09
2022-08-12T17:23:20.319Z,97658.91
2022-08-12T17:25:51.889Z,97655.28
2022-08-12T17:28:23.098Z,97662.28
2022-08-12T17:30:59.709Z,97659.47
2022-08-12T17:33:34.742Z,97657.16
2022-08-12T17:36:05.484Z,97651.66
2022-08-12T17:38:35.145Z,97657.81
2022-08-12T17:41:22.685Z,97656.31
2022-08-12T17:43:58.577Z,97654.56
2022-08-12T17:46:33.093Z,97659.66
2022-08-12T17:49:18.834Z,97658.25
2022-08-12T17:52:02.583Z,97659.00
2022-08-12T17:54:32.830Z,97655.38
2022-08-12T17:57:02.547Z,97657.75
2022-08-12T17:59:48.029Z,97654.69
2022-08-12T18:02:29.949Z,97654.59
2022-08-12T18:05:09.440Z,97649.66
2022-08-12T18:07:39.520Z,97642.00
2022-08-12T18:10:09.147Z,97644.59
2022-08-12T18:12:42.835Z,97642.59
2022-08-12T18:15:26.024Z,97642.50
2022-08-12T18:17:59.240Z,97647.00
2022-08-12T18:20:29.768Z,97638.78
2022-08-12T18:23:03.141Z,97642.22
2022-08-12T18:26:14.989Z,97650.47
2022-08-12T18:28:43.204Z,97667.38
2022-08-12T18:31:16.871Z,97660.69
2022-08-12T18:33:48.079Z,97666.47
2022-08-12T18:36:22.429Z,97663.03
2022-08-12T18:38:56.060Z,97665.25
2022-08-12T18:41:34.305Z,97657.97
2022-08-12T18:44:09.483Z,97667.06
2022-08-12T18:46:53.678Z,97666.25
2022-08-12T18:49:30.737Z,97665.78
2022-08-12T18:52:05.731Z,97663.63
2022-08-12T18:54:48.737Z,97672.28
2022-08-12T18:58:07.582Z,97671.25
2022-08-12T19:00:21.213Z,97677.22
2022-08-12T19:02:54.037Z,97679.69
2022-08-12T19:05:53.254Z,97673.75
2022-08-12T19:08:14.420Z,97676.19
2022-08-12T19:10:50.195Z,97673.78
2022-08-12T19:13:37.692Z,97674.34
2022-08-12T19:16:11.584Z,97683.22
2022-08-12T19:18:44.970Z,97675.44
2022-08-12T19:21:17.046Z,97684.69
2022-08-12T19:24:11.626Z,97680.66
2022-08-12T19:26:42.566Z,97683.66
2022-08-12T19:29:12.054Z,97679.38
2022-08-12T19:31:57.706Z,97682.13
2022-08-12T19:37:27.195Z,97683.16
2022-08-12T19:40:08.694Z,97686.53
2022-08-12T19:43:00.726Z,97687.66
2022-08-12T19:45:42.419Z,97686.66
2022-08-12T19:48:19.289Z,97676.38
2022-08-12T19:50:53.023Z,97676.66
2022-08-12T19:53:23.506Z,97675.69
2022-08-12T19:55:54.379Z,97666.75
2022-08-12T19:58:24.516Z,97667.41
2022-08-12T20:00:55.446Z,97667.50
2022-08-12T20:03:37.937Z,97670.03
2022-08-12T20:06:16.078Z,97673.00
2022-08-12T20:08:47.912Z,97665.16
2022-08-12T20:12:09.094Z,97663.13
2022-08-12T20:14:08.321Z,97663.16
2022-08-12T20:16:57.777Z,97672.13
2022-08-12T20:20:01.130Z,97672.19
2022-08-12T20:22:24.015Z,97668.69
2022-08-12T20:25:01.320Z,97677.22
2022-08-12T20:28:04.559Z,97679.94
2022-08-12T20:30:52.446Z,97674.59
2022-08-12T20:33:18.336Z,97674.63
2022-08-12T20:36:13.838Z,97684.19
2022-08-12T20:38:46.033Z,97681.53
2022-08-12T20:41:19.031Z,97676.56
2022-08-12T20:43:50.515Z,97679.69
2022-08-12T20:46:21.230Z,97676.00
2022-08-12T20:48:54.730Z,97679.94
2022-08-12T20:51:23.952Z,97675.59
2022-08-12T20:53:59.745Z,97679.78
2022-08-12T20:56:33.026Z,97676.88
2022-08-12T20:59:06.791Z,97679.81
2022-08-12T21:01:47.657Z,97679.81
2022-08-12T21:04:36.764Z,97677.16
2022-08-12T21:07:09.535Z,97685.25
2022-08-12T21:09:44.447Z,97685.88
2022-08-12T21:12:27.632Z,97678.22
2022-08-12T21:15:17.256Z,97674.72
2022-08-12T21:18:10.583Z,97679.06
2022-08-12T21:20:50.678Z,97680.75
2022-08-12T21:23:21.459Z,97680.31
2022-08-12T21:26:01.032Z,97670.16
2022-08-12T21:28:31.100Z,97675.97
2022-08-12T21:32:35.152Z,97672.06
2022-08-12T21:34:07.233Z,97672.06
2022-08-12T21:36:40.268Z,97672.66
2022-08-12T21:39:21.649Z,97678.69
2022-08-12T21:41:54.823Z,97677.41
2022-08-12T21:45:44.558Z,97681.38
2022-08-12T21:47:20.263Z,97675.75
2022-08-12T21:49:54.161Z,97683.44
2022-08-12T21:52:28.419Z,97681.16
2022-08-12T21:55:04.240Z,97684.06
2022-08-12T21:57:48.208Z,97683.63
2022-08-12T22:00:20.840Z,97689.44
2022-08-12T22:03:07.806Z,97688.19
2022-08-12T22:05:53.746Z,97700.41
2022-08-12T22:08:26.135Z,97677.00
2022-08-12T22:10:56.514Z,97680.91
2022-08-12T22:14:02.037Z,97684.00
2022-08-12T22:16:17.819Z,97680.09
2022-08-12T22:18:50.240Z,97682.34
2022-08-12T22:21:22.310Z,97678.41
2022-08-12T22:24:04.931Z,97669.53
2022-08-12T22:26:37.458Z,97669.91
2022-08-12T22:29:26.726Z,97673.19
2022-08-12T22:31:56.300Z,97672.97
2022-08-12T22:34:29.334Z,97679.59
2022-08-12T22:36:58.367Z,97677.31
2022-08-12T22:39:27.340Z,97675.00
2022-08-12T22:42:12.974Z,97678.09
2022-08-12T22:45:00.003Z,97675.38
2022-08-12T22:47:53.911Z,97666.91
2022-08-12T22:50:27.437Z,97668.31
2022-08-12T22:53:15.109Z,97668.72
2022-08-12T22:55:59.523Z,97654.88
2022-08-12T22:58:40.288Z,97662.50
2022-08-12T23:01:13.819Z,97658.78
2022-08-12T23:04:00.487Z,97651.31
2022-08-12T23:06:31.381Z,97659.56
2022-08-12T23:08:59.711Z,97651.06
2022-08-12T23:11:33.863Z,97658.31
2022-08-12T23:14:08.898Z,97655.19
2022-08-12T23:16:41.234Z,97650.22
2022-08-12T23:19:18.152Z,97651.28
2022-08-12T23:22:06.684Z,97646.50
2022-08-12T23:24:56.357Z,97649.75
2022-08-12T23:27:50.900Z,97646.81
2022-08-12T23:30:31.649Z,97650.94
2022-08-12T23:33:02.330Z,97644.28
2022-08-12T23:35:53.795Z,97642.63
2022-08-12T23:38:31.346Z,97641.38
2022-08-12T23:41:01.312Z,97639.09
2022-08-12T23:43:38.390Z,97638.44
2022-08-12T23:46:10.416Z,97643.81
2022-08-12T23:48:40.937Z,97638.44
2022-08-12T23:51:22.382Z,97640.50
2022-08-12T23:53:55.284Z,97633.06
2022-08-12T23:56:25.336Z,97638.63
2022-08-12T23:58:57.523Z,97645.00
